sensor_id;sensor_type;location;lat;lon;timestamp;P1;durP1;ratioP1;P2;durP2;ratioP2
76053;SDS011;64752;48.870;9.082;2023-04-08T00:02:05;21.20;;;15.87;;
76053;SDS011;64752;48.870;9.082;2023-04-08T00:04:30;21.70;;;15.70;;
76053;SDS011;64752;48.870;9.082;2023-04-08T00:06:56;21.30;;;14.95;;
76053;SDS011;64752;48.870;9.082;2023-04-08T00:09:21;19.00;;;14.57;;
76053;SDS011;64752;48.870;9.082;2023-04-08T00:11:46;21.63;;;14.67;;
76053;SDS011;64752;48.870;9.082;2023-04-08T00:14:12;23.65;;;15.80;;
76053;SDS011;64752;48.870;9.082;2023-04-08T00:16:37;18.60;;;13.80;;
76053;SDS011;64752;48.870;9.082;2023-04-08T00:19:02;19.80;;;13.70;;
76053;SDS011;64752;48.870;9.082;2023-04-08T00:21:27;20.05;;;13.52;;
76053;SDS011;64752;48.870;9.082;2023-04-08T00:23:52;18.87;;;13.77;;
76053;SDS011;64752;48.870;9.082;2023-04-08T00:26:18;18.20;;;13.25;;
76053;SDS011;64752;48.870;9.082;2023-04-08T00:28:43;19.80;;;13.95;;
76053;SDS011;64752;48.870;9.082;2023-04-08T00:31:09;18.27;;;13.88;;
76053;SDS011;64752;48.870;9.082;2023-04-08T00:33:34;16.45;;;13.10;;
76053;SDS011;64752;48.870;9.082;2023-04-08T00:36:00;16.98;;;13.63;;
76053;SDS011;64752;48.870;9.082;2023-04-08T00:38:25;19.13;;;14.32;;
76053;SDS011;64752;48.870;9.082;2023-04-08T00:40:50;19.30;;;14.00;;
76053;SDS011;64752;48.870;9.082;2023-04-08T00:43:16;17.70;;;13.45;;
76053;SDS011;64752;48.870;9.082;2023-04-08T00:45:44;17.98;;;13.45;;
76053;SDS011;64752;48.870;9.082;2023-04-08T00:48:09;17.33;;;13.17;;
76053;SDS011;64752;48.870;9.082;2023-04-08T00:50:35;19.97;;;14.17;;
76053;SDS011;64752;48.870;9.082;2023-04-08T00:53:00;18.58;;;14.63;;
76053;SDS011;64752;48.870;9.082;2023-04-08T00:55:25;18.05;;;14.20;;
76053;SDS011;64752;48.870;9.082;2023-04-08T00:57:50;19.00;;;14.52;;
76053;SDS011;64752;48.870;9.082;2023-04-08T01:00:15;19.25;;;14.70;;
76053;SDS011;64752;48.870;9.082;2023-04-08T01:05:29;19.05;;;15.60;;
76053;SDS011;64752;48.870;9.082;2023-04-08T01:08:00;19.98;;;15.88;;
76053;SDS011;64752;48.870;9.082;2023-04-08T01:10:30;19.40;;;15.27;;
76053;SDS011;64752;48.870;9.082;2023-04-08T01:12:58;18.10;;;14.75;;
76053;SDS011;64752;48.870;9.082;2023-04-08T01:15:25;20.80;;;15.90;;
76053;SDS011;64752;48.870;9.082;2023-04-08T01:17:54;19.40;;;15.55;;
76053;SDS011;64752;48.870;9.082;2023-04-08T01:20:21;19.25;;;14.73;;
76053;SDS011;64752;48.870;9.082;2023-04-08T01:25:31;19.77;;;16.20;;
76053;SDS011;64752;48.870;9.082;2023-04-08T01:27:57;20.23;;;15.95;;
76053;SDS011;64752;48.870;9.082;2023-04-08T01:30:24;24.23;;;17.27;;
76053;SDS011;64752;48.870;9.082;2023-04-08T01:32:50;21.63;;;16.17;;
76053;SDS011;64752;48.870;9.082;2023-04-08T01:35:16;23.15;;;16.77;;
76053;SDS011;64752;48.870;9.082;2023-04-08T01:37:42;21.38;;;16.73;;
76053;SDS011;64752;48.870;9.082;2023-04-08T01:40:07;24.02;;;17.67;;
76053;SDS011;64752;48.870;9.082;2023-04-08T01:42:33;21.15;;;16.02;;
76053;SDS011;64752;48.870;9.082;2023-04-08T01:44:59;22.58;;;17.05;;
76053;SDS011;64752;48.870;9.082;2023-04-08T01:47:26;24.58;;;17.02;;
76053;SDS011;64752;48.870;9.082;2023-04-08T01:49:52;25.70;;;18.00;;
76053;SDS011;64752;48.870;9.082;2023-04-08T01:52:17;22.70;;;17.52;;
76053;SDS011;64752;48.870;9.082;2023-04-08T01:54:43;21.80;;;16.52;;
76053;SDS011;64752;48.870;9.082;2023-04-08T01:57:09;23.07;;;16.53;;
76053;SDS011;64752;48.870;9.082;2023-04-08T01:59:36;23.85;;;16.65;;
76053;SDS011;64752;48.870;9.082;2023-04-08T02:02:02;26.90;;;18.88;;
76053;SDS011;64752;48.870;9.082;2023-04-08T02:04:29;27.25;;;19.30;;
76053;SDS011;64752;48.870;9.082;2023-04-08T02:06:54;29.35;;;19.67;;
76053;SDS011;64752;48.870;9.082;2023-04-08T02:09:20;28.23;;;20.58;;
76053;SDS011;64752;48.870;9.082;2023-04-08T02:11:45;26.05;;;19.90;;
76053;SDS011;64752;48.870;9.082;2023-04-08T02:14:10;33.30;;;21.77;;
76053;SDS011;64752;48.870;9.082;2023-04-08T02:16:39;36.20;;;23.05;;
76053;SDS011;64752;48.870;9.082;2023-04-08T02:22:03;34.28;;;23.83;;
76053;SDS011;64752;48.870;9.082;2023-04-08T02:24:29;34.95;;;22.88;;
76053;SDS011;64752;48.870;9.082;2023-04-08T02:26:56;35.55;;;23.92;;
76053;SDS011;64752;48.870;9.082;2023-04-08T02:29:22;34.15;;;22.60;;
76053;SDS011;64752;48.870;9.082;2023-04-08T02:31:47;38.75;;;23.20;;
76053;SDS011;64752;48.870;9.082;2023-04-08T02:34:14;35.50;;;23.15;;
76053;SDS011;64752;48.870;9.082;2023-04-08T02:36:40;35.97;;;23.02;;
76053;SDS011;64752;48.870;9.082;2023-04-08T02:39:09;36.42;;;23.40;;
76053;SDS011;64752;48.870;9.082;2023-04-08T02:41:35;33.30;;;22.25;;
76053;SDS011;64752;48.870;9.082;2023-04-08T02:44:00;38.00;;;23.15;;
76053;SDS011;64752;48.870;9.082;2023-04-08T02:46:25;39.85;;;24.05;;
76053;SDS011;64752;48.870;9.082;2023-04-08T02:48:50;36.40;;;21.87;;
76053;SDS011;64752;48.870;9.082;2023-04-08T02:51:15;44.05;;;25.38;;
76053;SDS011;64752;48.870;9.082;2023-04-08T02:53:41;39.37;;;23.90;;
76053;SDS011;64752;48.870;9.082;2023-04-08T02:56:09;46.22;;;25.10;;
76053;SDS011;64752;48.870;9.082;2023-04-08T02:58:35;45.35;;;24.98;;
76053;SDS011;64752;48.870;9.082;2023-04-08T03:01:00;50.92;;;27.45;;
76053;SDS011;64752;48.870;9.082;2023-04-08T03:03:25;48.63;;;26.80;;
76053;SDS011;64752;48.870;9.082;2023-04-08T03:05:55;47.63;;;25.55;;
76053;SDS011;64752;48.870;9.082;2023-04-08T03:08:21;46.08;;;23.88;;
76053;SDS011;64752;48.870;9.082;2023-04-08T03:10:46;53.33;;;26.25;;
76053;SDS011;64752;48.870;9.082;2023-04-08T03:13:11;55.50;;;27.65;;
76053;SDS011;64752;48.870;9.082;2023-04-08T03:15:37;46.50;;;25.45;;
76053;SDS011;64752;48.870;9.082;2023-04-08T03:18:02;48.72;;;25.13;;
76053;SDS011;64752;48.870;9.082;2023-04-08T03:20:27;48.80;;;25.05;;
76053;SDS011;64752;48.870;9.082;2023-04-08T03:22:52;53.25;;;26.85;;
76053;SDS011;64752;48.870;9.082;2023-04-08T03:25:18;52.47;;;26.50;;
76053;SDS011;64752;48.870;9.082;2023-04-08T03:27:43;62.33;;;28.55;;
76053;SDS011;64752;48.870;9.082;2023-04-08T03:30:08;69.80;;;31.95;;
76053;SDS011;64752;48.870;9.082;2023-04-08T03:32:34;66.55;;;30.00;;
76053;SDS011;64752;48.870;9.082;2023-04-08T03:34:59;61.83;;;28.30;;
76053;SDS011;64752;48.870;9.082;2023-04-08T03:37:24;58.87;;;29.80;;
76053;SDS011;64752;48.870;9.082;2023-04-08T03:39:49;59.83;;;29.27;;
76053;SDS011;64752;48.870;9.082;2023-04-08T03:42:14;58.05;;;28.98;;
76053;SDS011;64752;48.870;9.082;2023-04-08T03:44:40;56.45;;;28.98;;
76053;SDS011;64752;48.870;9.082;2023-04-08T03:47:05;55.85;;;27.83;;
76053;SDS011;64752;48.870;9.082;2023-04-08T03:49:30;64.32;;;28.60;;
76053;SDS011;64752;48.870;9.082;2023-04-08T03:51:55;56.30;;;29.90;;
76053;SDS011;64752;48.870;9.082;2023-04-08T03:54:20;51.90;;;27.50;;
76053;SDS011;64752;48.870;9.082;2023-04-08T03:56:46;55.90;;;28.00;;
76053;SDS011;64752;48.870;9.082;2023-04-08T03:59:11;53.03;;;27.27;;
76053;SDS011;64752;48.870;9.082;2023-04-08T04:01:36;58.75;;;30.40;;
76053;SDS011;64752;48.870;9.082;2023-04-08T04:04:01;48.25;;;26.35;;
76053;SDS011;64752;48.870;9.082;2023-04-08T04:06:27;45.17;;;25.13;;
76053;SDS011;64752;48.870;9.082;2023-04-08T04:08:52;43.25;;;24.95;;
76053;SDS011;64752;48.870;9.082;2023-04-08T04:11:18;51.70;;;25.15;;
76053;SDS011;64752;48.870;9.082;2023-04-08T04:13:43;42.20;;;23.80;;
76053;SDS011;64752;48.870;9.082;2023-04-08T04:16:08;43.53;;;24.60;;
76053;SDS011;64752;48.870;9.082;2023-04-08T04:18:34;48.90;;;24.52;;
76053;SDS011;64752;48.870;9.082;2023-04-08T04:20:59;42.50;;;24.90;;
76053;SDS011;64752;48.870;9.082;2023-04-08T04:23:24;48.47;;;24.80;;
76053;SDS011;64752;48.870;9.082;2023-04-08T04:25:49;44.50;;;23.60;;
76053;SDS011;64752;48.870;9.082;2023-04-08T04:28:15;44.65;;;24.67;;
76053;SDS011;64752;48.870;9.082;2023-04-08T04:30:40;43.97;;;23.77;;
76053;SDS011;64752;48.870;9.082;2023-04-08T04:33:06;45.60;;;25.35;;
76053;SDS011;64752;48.870;9.082;2023-04-08T04:35:31;42.40;;;25.35;;
76053;SDS011;64752;48.870;9.082;2023-04-08T04:37:57;45.75;;;25.83;;
76053;SDS011;64752;48.870;9.082;2023-04-08T04:40:22;47.95;;;26.38;;
76053;SDS011;64752;48.870;9.082;2023-04-08T04:42:47;51.58;;;28.75;;
76053;SDS011;64752;48.870;9.082;2023-04-08T04:45:13;48.22;;;26.95;;
76053;SDS011;64752;48.870;9.082;2023-04-08T04:47:38;53.47;;;29.38;;
76053;SDS011;64752;48.870;9.082;2023-04-08T04:50:03;57.50;;;32.03;;
76053;SDS011;64752;48.870;9.082;2023-04-08T04:52:29;54.20;;;29.23;;
76053;SDS011;64752;48.870;9.082;2023-04-08T04:54:56;53.50;;;29.98;;
76053;SDS011;64752;48.870;9.082;2023-04-08T04:57:21;63.08;;;32.25;;
76053;SDS011;64752;48.870;9.082;2023-04-08T04:59:46;68.63;;;35.03;;
76053;SDS011;64752;48.870;9.082;2023-04-08T05:02:11;76.80;;;38.78;;
76053;SDS011;64752;48.870;9.082;2023-04-08T05:04:36;72.53;;;37.33;;
76053;SDS011;64752;48.870;9.082;2023-04-08T05:07:02;68.00;;;35.40;;
76053;SDS011;64752;48.870;9.082;2023-04-08T05:09:27;79.10;;;38.33;;
76053;SDS011;64752;48.870;9.082;2023-04-08T05:11:53;70.20;;;35.88;;
76053;SDS011;64752;48.870;9.082;2023-04-08T05:14:18;81.55;;;38.90;;
76053;SDS011;64752;48.870;9.082;2023-04-08T05:16:43;76.82;;;36.22;;
76053;SDS011;64752;48.870;9.082;2023-04-08T05:19:08;73.32;;;37.42;;
76053;SDS011;64752;48.870;9.082;2023-04-08T05:21:34;84.68;;;38.88;;
76053;SDS011;64752;48.870;9.082;2023-04-08T05:23:59;78.30;;;37.70;;
76053;SDS011;64752;48.870;9.082;2023-04-08T05:26:24;79.68;;;38.80;;
76053;SDS011;64752;48.870;9.082;2023-04-08T05:28:50;92.60;;;41.75;;
76053;SDS011;64752;48.870;9.082;2023-04-08T05:31:19;94.63;;;42.28;;
76053;SDS011;64752;48.870;9.082;2023-04-08T05:33:44;88.68;;;40.33;;
76053;SDS011;64752;48.870;9.082;2023-04-08T05:36:10;88.40;;;42.42;;
76053;SDS011;64752;48.870;9.082;2023-04-08T05:38:35;89.63;;;39.45;;
76053;SDS011;64752;48.870;9.082;2023-04-08T05:41:00;82.43;;;38.92;;
76053;SDS011;64752;48.870;9.082;2023-04-08T05:43:25;83.32;;;38.90;;
76053;SDS011;64752;48.870;9.082;2023-04-08T05:45:51;69.63;;;36.70;;
76053;SDS011;64752;48.870;9.082;2023-04-08T05:48:16;57.20;;;33.22;;
76053;SDS011;64752;48.870;9.082;2023-04-08T05:50:41;51.75;;;30.52;;
76053;SDS011;64752;48.870;9.082;2023-04-08T05:53:07;52.25;;;30.83;;
76053;SDS011;64752;48.870;9.082;2023-04-08T05:55:33;50.17;;;30.15;;
76053;SDS011;64752;48.870;9.082;2023-04-08T05:57:58;45.83;;;29.00;;
76053;SDS011;64752;48.870;9.082;2023-04-08T06:00:23;43.60;;;29.08;;
76053;SDS011;64752;48.870;9.082;2023-04-08T06:02:49;39.13;;;25.55;;
76053;SDS011;64752;48.870;9.082;2023-04-08T06:05:14;40.80;;;25.50;;
76053;SDS011;64752;48.870;9.082;2023-04-08T06:07:39;35.83;;;25.98;;
76053;SDS011;64752;48.870;9.082;2023-04-08T06:10:05;35.85;;;24.88;;
76053;SDS011;64752;48.870;9.082;2023-04-08T06:12:34;32.10;;;23.35;;
76053;SDS011;64752;48.870;9.082;2023-04-08T06:14:59;36.70;;;23.55;;
76053;SDS011;64752;48.870;9.082;2023-04-08T06:17:24;33.08;;;23.25;;
76053;SDS011;64752;48.870;9.082;2023-04-08T06:19:50;36.00;;;24.20;;
76053;SDS011;64752;48.870;9.082;2023-04-08T06:22:15;30.55;;;21.52;;
76053;SDS011;64752;48.870;9.082;2023-04-08T06:24:41;32.83;;;21.52;;
76053;SDS011;64752;48.870;9.082;2023-04-08T06:27:06;31.55;;;21.45;;
76053;SDS011;64752;48.870;9.082;2023-04-08T06:29:31;30.77;;;21.33;;
76053;SDS011;64752;48.870;9.082;2023-04-08T06:31:57;30.90;;;21.35;;
76053;SDS011;64752;48.870;9.082;2023-04-08T06:34:22;29.65;;;19.85;;
76053;SDS011;64752;48.870;9.082;2023-04-08T06:36:48;31.30;;;21.33;;
76053;SDS011;64752;48.870;9.082;2023-04-08T06:39:14;27.63;;;19.67;;
76053;SDS011;64752;48.870;9.082;2023-04-08T06:41:40;27.42;;;20.10;;
76053;SDS011;64752;48.870;9.082;2023-04-08T06:44:06;27.52;;;18.60;;
76053;SDS011;64752;48.870;9.082;2023-04-08T06:46:31;27.00;;;18.98;;
76053;SDS011;64752;48.870;9.082;2023-04-08T06:48:56;25.47;;;18.03;;
76053;SDS011;64752;48.870;9.082;2023-04-08T06:51:21;25.97;;;17.83;;
76053;SDS011;64752;48.870;9.082;2023-04-08T06:53:47;24.85;;;17.38;;
76053;SDS011;64752;48.870;9.082;2023-04-08T06:56:12;25.33;;;18.10;;
76053;SDS011;64752;48.870;9.082;2023-04-08T06:58:37;26.85;;;17.80;;
76053;SDS011;64752;48.870;9.082;2023-04-08T07:01:02;24.98;;;18.13;;
76053;SDS011;64752;48.870;9.082;2023-04-08T07:03:28;27.45;;;17.40;;
76053;SDS011;64752;48.870;9.082;2023-04-08T07:05:53;22.75;;;16.67;;
76053;SDS011;64752;48.870;9.082;2023-04-08T07:08:18;21.33;;;15.40;;
76053;SDS011;64752;48.870;9.082;2023-04-08T07:10:43;22.00;;;16.30;;
76053;SDS011;64752;48.870;9.082;2023-04-08T07:13:09;23.88;;;16.33;;
76053;SDS011;64752;48.870;9.082;2023-04-08T07:15:34;22.00;;;15.65;;
76053;SDS011;64752;48.870;9.082;2023-04-08T07:18:00;21.02;;;15.30;;
76053;SDS011;64752;48.870;9.082;2023-04-08T07:20:25;20.10;;;13.65;;
76053;SDS011;64752;48.870;9.082;2023-04-08T07:22:50;21.10;;;14.80;;
76053;SDS011;64752;48.870;9.082;2023-04-08T07:25:15;17.88;;;14.02;;
76053;SDS011;64752;48.870;9.082;2023-04-08T07:27:41;17.30;;;13.25;;
76053;SDS011;64752;48.870;9.082;2023-04-08T07:30:06;17.10;;;13.85;;
76053;SDS011;64752;48.870;9.082;2023-04-08T07:32:32;16.05;;;12.80;;
76053;SDS011;64752;48.870;9.082;2023-04-08T07:34:57;17.33;;;12.27;;
76053;SDS011;64752;48.870;9.082;2023-04-08T07:37:22;16.30;;;11.57;;
76053;SDS011;64752;48.870;9.082;2023-04-08T07:39:48;15.13;;;11.05;;
76053;SDS011;64752;48.870;9.082;2023-04-08T07:42:13;13.90;;;10.80;;
76053;SDS011;64752;48.870;9.082;2023-04-08T07:44:38;13.53;;;9.80;;
76053;SDS011;64752;48.870;9.082;2023-04-08T07:47:03;12.47;;;10.23;;
76053;SDS011;64752;48.870;9.082;2023-04-08T07:49:28;11.70;;;10.10;;
76053;SDS011;64752;48.870;9.082;2023-04-08T07:51:54;12.70;;;10.40;;
76053;SDS011;64752;48.870;9.082;2023-04-08T07:54:19;12.20;;;9.80;;
76053;SDS011;64752;48.870;9.082;2023-04-08T07:56:45;12.73;;;9.90;;
76053;SDS011;64752;48.870;9.082;2023-04-08T07:59:10;11.00;;;9.27;;
76053;SDS011;64752;48.870;9.082;2023-04-08T08:01:36;10.57;;;9.47;;
76053;SDS011;64752;48.870;9.082;2023-04-08T08:04:01;14.33;;;10.73;;
76053;SDS011;64752;48.870;9.082;2023-04-08T08:06:26;12.47;;;10.07;;
76053;SDS011;64752;48.870;9.082;2023-04-08T08:08:52;11.88;;;9.57;;
76053;SDS011;64752;48.870;9.082;2023-04-08T08:11:17;12.07;;;9.37;;
76053;SDS011;64752;48.870;9.082;2023-04-08T08:13:42;11.38;;;9.90;;
76053;SDS011;64752;48.870;9.082;2023-04-08T08:16:07;12.50;;;10.10;;
76053;SDS011;64752;48.870;9.082;2023-04-08T08:18:35;14.27;;;10.68;;
76053;SDS011;64752;48.870;9.082;2023-04-08T08:21:01;12.60;;;10.35;;
76053;SDS011;64752;48.870;9.082;2023-04-08T08:23:26;13.67;;;11.00;;
76053;SDS011;64752;48.870;9.082;2023-04-08T08:25:57;12.93;;;10.87;;
76053;SDS011;64752;48.870;9.082;2023-04-08T08:28:23;14.52;;;10.75;;
76053;SDS011;64752;48.870;9.082;2023-04-08T08:30:48;12.90;;;10.30;;
76053;SDS011;64752;48.870;9.082;2023-04-08T08:33:13;13.60;;;9.77;;
76053;SDS011;64752;48.870;9.082;2023-04-08T08:35:38;13.17;;;10.13;;
76053;SDS011;64752;48.870;9.082;2023-04-08T08:38:03;12.33;;;9.23;;
76053;SDS011;64752;48.870;9.082;2023-04-08T08:40:29;12.33;;;9.77;;
76053;SDS011;64752;48.870;9.082;2023-04-08T08:42:54;11.50;;;9.37;;
76053;SDS011;64752;48.870;9.082;2023-04-08T08:47:46;11.65;;;9.32;;
76053;SDS011;64752;48.870;9.082;2023-04-08T08:50:11;10.80;;;9.03;;
76053;SDS011;64752;48.870;9.082;2023-04-08T08:52:36;10.27;;;8.47;;
76053;SDS011;64752;48.870;9.082;2023-04-08T08:55:02;11.43;;;8.93;;
76053;SDS011;64752;48.870;9.082;2023-04-08T08:57:27;11.37;;;9.23;;
76053;SDS011;64752;48.870;9.082;2023-04-08T08:59:52;11.90;;;9.07;;
76053;SDS011;64752;48.870;9.082;2023-04-08T09:02:30;11.93;;;8.77;;
76053;SDS011;64752;48.870;9.082;2023-04-08T09:04:59;11.30;;;9.32;;
76053;SDS011;64752;48.870;9.082;2023-04-08T09:07:26;10.57;;;8.82;;
76053;SDS011;64752;48.870;9.082;2023-04-08T09:09:51;11.00;;;9.00;;
76053;SDS011;64752;48.870;9.082;2023-04-08T09:12:16;11.10;;;8.90;;
76053;SDS011;64752;48.870;9.082;2023-04-08T09:14:42;12.33;;;9.70;;
76053;SDS011;64752;48.870;9.082;2023-04-08T09:17:07;10.33;;;8.80;;
76053;SDS011;64752;48.870;9.082;2023-04-08T09:19:32;10.20;;;9.00;;
76053;SDS011;64752;48.870;9.082;2023-04-08T09:22:07;11.10;;;9.60;;
76053;SDS011;64752;48.870;9.082;2023-04-08T09:24:33;11.50;;;9.18;;
76053;SDS011;64752;48.870;9.082;2023-04-08T09:26:59;13.50;;;9.03;;
76053;SDS011;64752;48.870;9.082;2023-04-08T09:29:24;9.77;;;8.70;;
76053;SDS011;64752;48.870;9.082;2023-04-08T09:34:16;10.13;;;9.02;;
76053;SDS011;64752;48.870;9.082;2023-04-08T09:36:44;11.98;;;9.18;;
76053;SDS011;64752;48.870;9.082;2023-04-08T09:39:10;9.83;;;8.37;;
76053;SDS011;64752;48.870;9.082;2023-04-08T09:41:36;10.63;;;8.73;;
76053;SDS011;64752;48.870;9.082;2023-04-08T09:44:08;10.55;;;9.02;;
76053;SDS011;64752;48.870;9.082;2023-04-08T09:51:53;11.30;;;9.07;;
76053;SDS011;64752;48.870;9.082;2023-04-08T09:54:24;9.68;;;8.32;;
76053;SDS011;64752;48.870;9.082;2023-04-08T09:56:59;14.13;;;9.40;;
76053;SDS011;64752;48.870;9.082;2023-04-08T09:59:25;12.68;;;8.95;;
76053;SDS011;64752;48.870;9.082;2023-04-08T10:01:52;10.95;;;8.57;;
76053;SDS011;64752;48.870;9.082;2023-04-08T10:04:19;10.57;;;8.60;;
76053;SDS011;64752;48.870;9.082;2023-04-08T10:09:10;12.23;;;9.00;;
76053;SDS011;64752;48.870;9.082;2023-04-08T10:11:35;9.43;;;7.80;;
76053;SDS011;64752;48.870;9.082;2023-04-08T10:14:00;9.70;;;8.00;;
76053;SDS011;64752;48.870;9.082;2023-04-08T10:16:26;11.00;;;8.80;;
76053;SDS011;64752;48.870;9.082;2023-04-08T10:18:52;11.70;;;8.23;;
76053;SDS011;64752;48.870;9.082;2023-04-08T10:21:37;11.80;;;8.57;;
76053;SDS011;64752;48.870;9.082;2023-04-08T10:24:07;11.00;;;7.88;;
76053;SDS011;64752;48.870;9.082;2023-04-08T10:26:34;12.00;;;8.48;;
76053;SDS011;64752;48.870;9.082;2023-04-08T10:31:25;11.95;;;8.98;;
76053;SDS011;64752;48.870;9.082;2023-04-08T10:33:51;10.20;;;8.67;;
76053;SDS011;64752;48.870;9.082;2023-04-08T10:36:16;11.27;;;8.67;;
76053;SDS011;64752;48.870;9.082;2023-04-08T10:38:42;12.23;;;9.50;;
76053;SDS011;64752;48.870;9.082;2023-04-08T10:41:10;11.25;;;8.82;;
76053;SDS011;64752;48.870;9.082;2023-04-08T10:46:10;11.02;;;8.73;;
76053;SDS011;64752;48.870;9.082;2023-04-08T10:48:36;13.02;;;8.77;;
76053;SDS011;64752;48.870;9.082;2023-04-08T10:51:01;14.90;;;10.15;;
76053;SDS011;64752;48.870;9.082;2023-04-08T10:56:05;11.10;;;8.82;;
76053;SDS011;64752;48.870;9.082;2023-04-08T10:58:31;16.80;;;10.18;;
76053;SDS011;64752;48.870;9.082;2023-04-08T11:01:01;11.02;;;9.30;;
76053;SDS011;64752;48.870;9.082;2023-04-08T11:03:27;22.50;;;12.25;;
76053;SDS011;64752;48.870;9.082;2023-04-08T11:05:52;11.63;;;9.07;;
76053;SDS011;64752;48.870;9.082;2023-04-08T11:08:26;12.52;;;9.10;;
76053;SDS011;64752;48.870;9.082;2023-04-08T11:10:51;13.60;;;9.85;;
76053;SDS011;64752;48.870;9.082;2023-04-08T11:13:16;13.52;;;10.27;;
76053;SDS011;64752;48.870;9.082;2023-04-08T11:15:41;10.48;;;8.60;;
76053;SDS011;64752;48.870;9.082;2023-04-08T11:18:07;11.13;;;8.88;;
76053;SDS011;64752;48.870;9.082;2023-04-08T11:20:33;11.80;;;9.20;;
76053;SDS011;64752;48.870;9.082;2023-04-08T11:23:02;12.82;;;9.43;;
76053;SDS011;64752;48.870;9.082;2023-04-08T11:25:27;11.15;;;8.82;;
76053;SDS011;64752;48.870;9.082;2023-04-08T11:27:53;12.60;;;9.60;;
76053;SDS011;64752;48.870;9.082;2023-04-08T11:30:18;13.00;;;8.50;;
76053;SDS011;64752;48.870;9.082;2023-04-08T11:32:43;11.85;;;9.02;;
76053;SDS011;64752;48.870;9.082;2023-04-08T11:35:09;13.70;;;9.25;;
76053;SDS011;64752;48.870;9.082;2023-04-08T11:37:41;11.95;;;9.38;;
76053;SDS011;64752;48.870;9.082;2023-04-08T11:40:09;11.18;;;9.02;;
76053;SDS011;64752;48.870;9.082;2023-04-08T11:42:35;11.95;;;9.43;;
76053;SDS011;64752;48.870;9.082;2023-04-08T11:45:00;10.63;;;9.27;;
76053;SDS011;64752;48.870;9.082;2023-04-08T11:47:32;12.90;;;9.57;;
76053;SDS011;64752;48.870;9.082;2023-04-08T11:49:58;11.43;;;9.13;;
76053;SDS011;64752;48.870;9.082;2023-04-08T11:52:39;11.13;;;8.80;;
76053;SDS011;64752;48.870;9.082;2023-04-08T11:55:05;11.50;;;8.90;;
76053;SDS011;64752;48.870;9.082;2023-04-08T11:57:30;12.88;;;8.88;;
76053;SDS011;64752;48.870;9.082;2023-04-08T11:59:56;12.10;;;9.25;;
76053;SDS011;64752;48.870;9.082;2023-04-08T12:02:22;13.13;;;8.70;;
76053;SDS011;64752;48.870;9.082;2023-04-08T12:04:47;12.18;;;9.20;;
76053;SDS011;64752;48.870;9.082;2023-04-08T12:07:12;11.17;;;8.70;;
76053;SDS011;64752;48.870;9.082;2023-04-08T12:09:38;11.05;;;9.27;;
76053;SDS011;64752;48.870;9.082;2023-04-08T12:12:03;13.93;;;8.73;;
76053;SDS011;64752;48.870;9.082;2023-04-08T12:14:28;11.23;;;8.82;;
76053;SDS011;64752;48.870;9.082;2023-04-08T12:16:53;12.13;;;9.37;;
76053;SDS011;64752;48.870;9.082;2023-04-08T12:19:18;12.77;;;8.50;;
76053;SDS011;64752;48.870;9.082;2023-04-08T12:21:44;12.67;;;9.17;;
76053;SDS011;64752;48.870;9.082;2023-04-08T12:24:09;13.65;;;9.00;;
76053;SDS011;64752;48.870;9.082;2023-04-08T12:26:34;12.38;;;9.40;;
76053;SDS011;64752;48.870;9.082;2023-04-08T12:28:59;11.50;;;9.33;;
76053;SDS011;64752;48.870;9.082;2023-04-08T12:31:25;11.33;;;9.00;;
76053;SDS011;64752;48.870;9.082;2023-04-08T12:33:52;11.48;;;9.07;;
76053;SDS011;64752;48.870;9.082;2023-04-08T12:36:17;14.67;;;9.47;;
76053;SDS011;64752;48.870;9.082;2023-04-08T12:38:43;15.47;;;9.67;;
76053;SDS011;64752;48.870;9.082;2023-04-08T12:41:08;12.05;;;8.75;;
76053;SDS011;64752;48.870;9.082;2023-04-08T12:43:33;11.85;;;8.77;;
76053;SDS011;64752;48.870;9.082;2023-04-08T12:45:58;11.27;;;8.70;;
76053;SDS011;64752;48.870;9.082;2023-04-08T12:48:24;13.93;;;9.33;;
76053;SDS011;64752;48.870;9.082;2023-04-08T12:50:49;11.75;;;8.82;;
76053;SDS011;64752;48.870;9.082;2023-04-08T12:53:14;12.05;;;8.43;;
76053;SDS011;64752;48.870;9.082;2023-04-08T12:55:40;11.77;;;8.52;;
76053;SDS011;64752;48.870;9.082;2023-04-08T12:58:05;10.32;;;8.52;;
76053;SDS011;64752;48.870;9.082;2023-04-08T13:00:30;11.40;;;8.50;;
76053;SDS011;64752;48.870;9.082;2023-04-08T13:02:56;11.50;;;8.73;;
76053;SDS011;64752;48.870;9.082;2023-04-08T13:05:21;10.55;;;8.27;;
76053;SDS011;64752;48.870;9.082;2023-04-08T13:07:46;13.60;;;8.48;;
76053;SDS011;64752;48.870;9.082;2023-04-08T13:10:11;11.43;;;8.10;;
76053;SDS011;64752;48.870;9.082;2023-04-08T13:12:37;9.98;;;8.13;;
76053;SDS011;64752;48.870;9.082;2023-04-08T13:17:29;10.40;;;8.07;;
76053;SDS011;64752;48.870;9.082;2023-04-08T13:19:54;12.60;;;9.50;;
76053;SDS011;64752;48.870;9.082;2023-04-08T13:22:20;11.27;;;8.77;;
76053;SDS011;64752;48.870;9.082;2023-04-08T13:24:48;11.02;;;8.57;;
76053;SDS011;64752;48.870;9.082;2023-04-08T13:27:13;12.45;;;8.55;;
76053;SDS011;64752;48.870;9.082;2023-04-08T13:29:38;11.70;;;9.18;;
76053;SDS011;64752;48.870;9.082;2023-04-08T13:32:04;11.43;;;8.98;;
76053;SDS011;64752;48.870;9.082;2023-04-08T13:34:32;11.17;;;8.50;;
76053;SDS011;64752;48.870;9.082;2023-04-08T13:36:57;13.40;;;8.05;;
76053;SDS011;64752;48.870;9.082;2023-04-08T13:39:23;10.40;;;8.38;;
76053;SDS011;64752;48.870;9.082;2023-04-08T13:41:48;12.40;;;8.53;;
76053;SDS011;64752;48.870;9.082;2023-04-08T13:44:13;11.13;;;8.23;;
76053;SDS011;64752;48.870;9.082;2023-04-08T13:46:39;11.10;;;8.70;;
76053;SDS011;64752;48.870;9.082;2023-04-08T13:49:07;11.85;;;8.50;;
76053;SDS011;64752;48.870;9.082;2023-04-08T13:51:33;11.13;;;8.65;;
76053;SDS011;64752;48.870;9.082;2023-04-08T13:53:58;9.43;;;7.97;;
76053;SDS011;64752;48.870;9.082;2023-04-08T13:56:23;10.35;;;8.27;;
76053;SDS011;64752;48.870;9.082;2023-04-08T13:58:49;15.07;;;8.95;;
76053;SDS011;64752;48.870;9.082;2023-04-08T14:01:14;11.80;;;9.10;;
76053;SDS011;64752;48.870;9.082;2023-04-08T14:03:40;11.77;;;8.70;;
76053;SDS011;64752;48.870;9.082;2023-04-08T14:06:05;13.73;;;8.57;;
76053;SDS011;64752;48.870;9.082;2023-04-08T14:08:30;11.93;;;8.90;;
76053;SDS011;64752;48.870;9.082;2023-04-08T14:10:55;11.70;;;8.30;;
76053;SDS011;64752;48.870;9.082;2023-04-08T14:13:21;9.65;;;7.90;;
76053;SDS011;64752;48.870;9.082;2023-04-08T14:15:47;12.73;;;8.20;;
76053;SDS011;64752;48.870;9.082;2023-04-08T14:18:13;11.00;;;8.10;;
76053;SDS011;64752;48.870;9.082;2023-04-08T14:20:41;9.32;;;7.15;;
76053;SDS011;64752;48.870;9.082;2023-04-08T14:23:06;11.50;;;8.70;;
76053;SDS011;64752;48.870;9.082;2023-04-08T14:25:31;12.20;;;7.70;;
76053;SDS011;64752;48.870;9.082;2023-04-08T14:27:57;9.53;;;7.70;;
76053;SDS011;64752;48.870;9.082;2023-04-08T14:30:22;10.00;;;8.20;;
76053;SDS011;64752;48.870;9.082;2023-04-08T14:32:47;9.03;;;7.27;;
76053;SDS011;64752;48.870;9.082;2023-04-08T14:35:12;9.40;;;7.10;;
76053;SDS011;64752;48.870;9.082;2023-04-08T14:37:40;10.05;;;7.57;;
76053;SDS011;64752;48.870;9.082;2023-04-08T14:40:06;9.40;;;7.43;;
76053;SDS011;64752;48.870;9.082;2023-04-08T14:42:31;9.53;;;7.07;;
76053;SDS011;64752;48.870;9.082;2023-04-08T14:44:56;10.00;;;7.33;;
76053;SDS011;64752;48.870;9.082;2023-04-08T14:47:22;10.03;;;7.40;;
76053;SDS011;64752;48.870;9.082;2023-04-08T14:49:47;11.77;;;7.30;;
76053;SDS011;64752;48.870;9.082;2023-04-08T14:52:13;10.10;;;7.90;;